sensor_id;sensor_type;location;lat;lon;timestamp;pressure;altitude;pressure_sealevel;temperature;humidity
18850;BME280;4989;48.772;9.154;2023-03-31T00:01:08;97394.50;;;13.33;75.09
18850;BME280;4989;48.772;9.154;2023-03-31T00:06:13;97392.94;;;13.22;75.54
18850;BME280;4989;48.772;9.154;2023-03-31T00:11:21;97389.91;;;13.20;75.62
18850;BME280;4989;48.772;9.154;2023-03-31T00:16:23;97378.25;;;13.20;75.57
18850;BME280;4989;48.772;9.154;2023-03-31T00:21:27;97381.41;;;13.18;75.52
18850;BME280;4989;48.772;9.154;2023-03-31T00:26:32;97362.94;;;13.22;75.60
18850;BME280;4989;48.772;9.154;2023-03-31T00:31:35;97354.13;;;13.18;75.70
18850;BME280;4989;48.772;9.154;2023-03-31T00:36:37;97350.19;;;13.19;75.59
18850;BME280;4989;48.772;9.154;2023-03-31T00:41:49;97341.53;;;13.02;76.50
18850;BME280;4989;48.772;9.154;2023-03-31T00:47:05;97333.94;;;12.79;78.02
18850;BME280;4989;48.772;9.154;2023-03-31T00:52:16;97327.38;;;12.67;78.41
18850;BME280;4989;48.772;9.154;2023-03-31T00:57:25;97320.75;;;12.87;77.90
18850;BME280;4989;48.772;9.154;2023-03-31T01:02:30;97321.94;;;12.76;78.29
18850;BME280;4989;48.772;9.154;2023-03-31T01:07:43;97318.63;;;12.72;78.37
18850;BME280;4989;48.772;9.154;2023-03-31T01:12:50;97313.47;;;12.65;78.45
18850;BME280;4989;48.772;9.154;2023-03-31T01:17:53;97298.63;;;12.75;77.91
18850;BME280;4989;48.772;9.154;2023-03-31T01:28:50;97253.19;;;12.91;77.49
18850;BME280;4989;48.772;9.154;2023-03-31T01:34:13;97265.31;;;12.80;78.05
18850;BME280;4989;48.772;9.154;2023-03-31T01:45:21;97280.59;;;12.87;80.88
18850;BME280;4989;48.772;9.154;2023-03-31T01:50:44;97283.66;;;12.80;77.66
18850;BME280;4989;48.772;9.154;2023-03-31T01:56:04;97280.13;;;12.79;78.74
18850;BME280;4989;48.772;9.154;2023-03-31T02:01:27;97293.47;;;12.68;79.88
18850;BME280;4989;48.772;9.154;2023-03-31T02:06:41;97280.75;;;12.65;82.70
18850;BME280;4989;48.772;9.154;2023-03-31T02:11:47;97279.47;;;12.38;83.50
18850;BME280;4989;48.772;9.154;2023-03-31T02:16:54;97271.44;;;12.26;85.84
18850;BME280;4989;48.772;9.154;2023-03-31T02:22:01;97248.59;;;12.42;89.42
18850;BME280;4989;48.772;9.154;2023-03-31T02:27:24;97241.34;;;12.57;88.76
18850;BME280;4989;48.772;9.154;2023-03-31T02:32:42;97232.56;;;12.34;92.33
18850;BME280;4989;48.772;9.154;2023-03-31T02:37:45;97216.81;;;12.38;92.55
18850;BME280;4989;48.772;9.154;2023-03-31T02:42:51;97171.94;;;12.03;92.91
18850;BME280;4989;48.772;9.154;2023-03-31T02:47:54;97153.22;;;12.23;94.53
18850;BME280;4989;48.772;9.154;2023-03-31T02:53:02;97143.81;;;12.24;93.56
18850;BME280;4989;48.772;9.154;2023-03-31T02:58:51;97134.72;;;12.18;94.87
18850;BME280;4989;48.772;9.154;2023-03-31T03:04:10;97119.00;;;12.50;91.39
18850;BME280;4989;48.772;9.154;2023-03-31T03:14:33;97080.25;;;12.27;94.04
18850;BME280;4989;48.772;9.154;2023-03-31T03:19:37;97067.69;;;12.02;96.75
18850;BME280;4989;48.772;9.154;2023-03-31T03:24:42;97043.56;;;11.64;100.00
18850;BME280;4989;48.772;9.154;2023-03-31T03:29:44;97026.34;;;11.67;98.68
18850;BME280;4989;48.772;9.154;2023-03-31T03:34:48;97017.91;;;11.65;99.90
18850;BME280;4989;48.772;9.154;2023-03-31T03:39:51;97007.28;;;11.49;100.00
18850;BME280;4989;48.772;9.154;2023-03-31T03:44:54;97000.59;;;11.31;100.00
18850;BME280;4989;48.772;9.154;2023-03-31T03:49:56;96991.53;;;11.43;100.00
18850;BME280;4989;48.772;9.154;2023-03-31T03:54:59;96974.94;;;11.69;99.80
18850;BME280;4989;48.772;9.154;2023-03-31T04:00:03;96954.81;;;11.48;100.00
18850;BME280;4989;48.772;9.154;2023-03-31T04:05:12;96949.53;;;11.63;100.00
18850;BME280;4989;48.772;9.154;2023-03-31T04:10:15;96933.47;;;11.19;100.00
18850;BME280;4989;48.772;9.154;2023-03-31T04:15:17;96916.97;;;11.04;100.00
18850;BME280;4989;48.772;9.154;2023-03-31T04:20:20;96901.13;;;10.93;100.00
18850;BME280;4989;48.772;9.154;2023-03-31T04:25:23;96898.41;;;11.03;100.00
18850;BME280;4989;48.772;9.154;2023-03-31T04:30:26;96895.38;;;11.00;100.00
18850;BME280;4989;48.772;9.154;2023-03-31T04:35:32;96891.78;;;11.31;100.00
18850;BME280;4989;48.772;9.154;2023-03-31T04:40:51;96898.28;;;11.43;100.00
18850;BME280;4989;48.772;9.154;2023-03-31T04:45:54;96884.81;;;11.12;100.00
18850;BME280;4989;48.772;9.154;2023-03-31T04:50:57;96872.72;;;10.85;100.00
18850;BME280;4989;48.772;9.154;2023-03-31T04:56:00;96870.72;;;10.76;100.00
18850;BME280;4989;48.772;9.154;2023-03-31T05:01:04;96866.94;;;10.74;100.00
18850;BME280;4989;48.772;9.154;2023-03-31T05:06:10;96853.09;;;10.90;100.00
18850;BME280;4989;48.772;9.154;2023-03-31T05:11:12;96850.22;;;10.85;100.00
18850;BME280;4989;48.772;9.154;2023-03-31T05:16:15;96873.75;;;10.78;100.00
18850;BME280;4989;48.772;9.154;2023-03-31T05:21:19;96888.06;;;10.70;100.00
18850;BME280;4989;48.772;9.154;2023-03-31T05:26:23;96912.84;;;10.72;100.00
18850;BME280;4989;48.772;9.154;2023-03-31T05:31:26;96906.78;;;10.68;100.00
18850;BME280;4989;48.772;9.154;2023-03-31T05:36:29;96906.91;;;10.55;100.00
18850;BME280;4989;48.772;9.154;2023-03-31T05:41:33;96888.13;;;10.39;100.00
18850;BME280;4989;48.772;9.154;2023-03-31T05:46:36;96879.50;;;10.31;100.00
18850;BME280;4989;48.772;9.154;2023-03-31T05:51:38;96855.75;;;10.63;100.00
18850;BME280;4989;48.772;9.154;2023-03-31T05:56:41;96848.78;;;10.62;100.00
18850;BME280;4989;48.772;9.154;2023-03-31T06:01:43;96828.56;;;10.44;100.00
18850;BME280;4989;48.772;9.154;2023-03-31T06:06:46;96833.13;;;10.66;100.00
18850;BME280;4989;48.772;9.154;2023-03-31T06:11:51;96819.50;;;10.47;100.00
18850;BME280;4989;48.772;9.154;2023-03-31T06:16:54;96803.66;;;10.64;100.00
18850;BME280;4989;48.772;9.154;2023-03-31T06:21:59;96792.38;;;10.75;100.00
18850;BME280;4989;48.772;9.154;2023-03-31T06:27:02;96782.72;;;10.92;100.00
18850;BME280;4989;48.772;9.154;2023-03-31T06:32:05;96780.91;;;11.08;100.00
18850;BME280;4989;48.772;9.154;2023-03-31T06:37:08;96775.16;;;10.96;100.00
18850;BME280;4989;48.772;9.154;2023-03-31T06:42:10;96793.56;;;10.83;100.00
18850;BME280;4989;48.772;9.154;2023-03-31T06:47:15;96790.56;;;10.81;100.00
18850;BME280;4989;48.772;9.154;2023-03-31T06:52:17;96807.75;;;10.69;100.00
18850;BME280;4989;48.772;9.154;2023-03-31T06:57:20;96832.66;;;10.67;100.00
18850;BME280;4989;48.772;9.154;2023-03-31T07:02:23;96859.97;;;10.54;100.00
18850;BME280;4989;48.772;9.154;2023-03-31T07:07:25;96873.84;;;10.57;100.00
18850;BME280;4989;48.772;9.154;2023-03-31T07:12:31;96854.84;;;10.66;100.00
18850;BME280;4989;48.772;9.154;2023-03-31T07:17:33;96805.66;;;10.73;100.00
18850;BME280;4989;48.772;9.154;2023-03-31T07:22:39;96788.44;;;10.94;100.00
18850;BME280;4989;48.772;9.154;2023-03-31T07:27:43;96769.13;;;10.92;100.00
18850;BME280;4989;48.772;9.154;2023-03-31T07:32:47;96761.25;;;10.94;100.00
18850;BME280;4989;48.772;9.154;2023-03-31T07:37:50;96774.25;;;11.18;100.00
18850;BME280;4989;48.772;9.154;2023-03-31T07:42:54;96767.28;;;12.20;100.00
18850;BME280;4989;48.772;9.154;2023-03-31T07:47:57;96769.31;;;13.81;100.00
18850;BME280;4989;48.772;9.154;2023-03-31T07:52:59;96767.41;;;13.87;100.00
18850;BME280;4989;48.772;9.154;2023-03-31T07:58:02;96751.03;;;13.87;100.00
18850;BME280;4989;48.772;9.154;2023-03-31T08:03:05;96759.44;;;13.68;100.00
18850;BME280;4989;48.772;9.154;2023-03-31T08:08:08;96757.13;;;15.14;91.56
18850;BME280;4989;48.772;9.154;2023-03-31T08:13:11;96751.50;;;15.54;85.99
18850;BME280;4989;48.772;9.154;2023-03-31T08:18:13;96747.16;;;16.00;84.25
18850;BME280;4989;48.772;9.154;2023-03-31T08:23:17;96741.63;;;16.32;82.29
18850;BME280;4989;48.772;9.154;2023-03-31T08:28:19;96724.00;;;17.94;77.21
18850;BME280;4989;48.772;9.154;2023-03-31T08:33:22;96731.66;;;19.04;72.56
18850;BME280;4989;48.772;9.154;2023-03-31T08:38:25;96726.31;;;19.53;67.90
18850;BME280;4989;48.772;9.154;2023-03-31T08:43:32;96711.53;;;19.86;64.91
18850;BME280;4989;48.772;9.154;2023-03-31T08:48:37;96711.16;;;18.94;66.15
18850;BME280;4989;48.772;9.154;2023-03-31T08:54:05;96732.63;;;20.08;64.18
18850;BME280;4989;48.772;9.154;2023-03-31T08:59:35;96720.88;;;21.65;57.58
18850;BME280;4989;48.772;9.154;2023-03-31T09:05:42;96709.44;;;22.01;55.00
18850;BME280;4989;48.772;9.154;2023-03-31T09:15:38;96708.94;;;19.34;60.22
18850;BME280;4989;48.772;9.154;2023-03-31T09:20:49;96689.56;;;21.05;54.74
18850;BME280;4989;48.772;9.154;2023-03-31T09:25:55;96689.16;;;21.15;52.69
18850;BME280;4989;48.772;9.154;2023-03-31T09:31:01;96694.09;;;19.73;57.30
18850;BME280;4989;48.772;9.154;2023-03-31T09:36:14;96701.00;;;17.18;63.80
18850;BME280;4989;48.772;9.154;2023-03-31T09:41:19;96706.91;;;16.77;66.73
18850;BME280;4989;48.772;9.154;2023-03-31T09:46:32;96714.34;;;16.11;67.52
18850;BME280;4989;48.772;9.154;2023-03-31T09:51:37;96689.50;;;18.10;59.23
18850;BME280;4989;48.772;9.154;2023-03-31T10:01:48;96672.38;;;20.37;52.89
18850;BME280;4989;48.772;9.154;2023-03-31T10:06:51;96651.50;;;19.08;53.79
18850;BME280;4989;48.772;9.154;2023-03-31T10:12:07;96633.31;;;21.81;49.40
18850;BME280;4989;48.772;9.154;2023-03-31T10:17:15;96630.03;;;22.49;45.58
18850;BME280;4989;48.772;9.154;2023-03-31T10:27:27;96640.25;;;25.40;40.40
18850;BME280;4989;48.772;9.154;2023-03-31T10:32:39;96618.28;;;21.36;45.39
18850;BME280;4989;48.772;9.154;2023-03-31T10:37:43;96610.09;;;24.70;39.98
18850;BME280;4989;48.772;9.154;2023-03-31T10:42:49;96582.38;;;20.85;45.12
18850;BME280;4989;48.772;9.154;2023-03-31T10:48:00;96580.63;;;22.00;43.71
18850;BME280;4989;48.772;9.154;2023-03-31T10:53:14;96589.50;;;21.13;44.06
18850;BME280;4989;48.772;9.154;2023-03-31T11:04:40;96550.94;;;19.50;46.28
18850;BME280;4989;48.772;9.154;2023-03-31T11:14:51;96576.16;;;17.53;52.83
18850;BME280;4989;48.772;9.154;2023-03-31T11:25:33;96774.63;;;13.16;95.16
18850;BME280;4989;48.772;9.154;2023-03-31T11:30:45;96740.28;;;12.07;96.28
18850;BME280;4989;48.772;9.154;2023-03-31T11:41:26;96725.56;;;11.81;89.31
18850;BME280;4989;48.772;9.154;2023-03-31T11:47:00;96734.66;;;11.68;92.38
18850;BME280;4989;48.772;9.154;2023-03-31T11:57:40;96705.25;;;12.63;85.72
18850;BME280;4989;48.772;9.154;2023-03-31T12:02:52;96686.47;;;12.95;80.72
18850;BME280;4989;48.772;9.154;2023-03-31T12:08:06;96657.03;;;17.74;60.86
18850;BME280;4989;48.772;9.154;2023-03-31T12:18:25;96632.28;;;15.96;63.72
18850;BME280;4989;48.772;9.154;2023-03-31T12:23:35;96620.84;;;16.97;62.33
18850;BME280;4989;48.772;9.154;2023-03-31T12:28:40;96631.94;;;16.43;60.26
18850;BME280;4989;48.772;9.154;2023-03-31T12:33:48;96619.50;;;18.99;55.43
18850;BME280;4989;48.772;9.154;2023-03-31T12:39:08;96613.66;;;17.22;58.04
18850;BME280;4989;48.772;9.154;2023-03-31T12:55:35;96572.47;;;18.08;54.56
18850;BME280;4989;48.772;9.154;2023-03-31T13:16:39;96595.09;;;16.61;61.70
18850;BME280;4989;48.772;9.154;2023-03-31T13:21:58;96605.06;;;15.44;74.33
18850;BME280;4989;48.772;9.154;2023-03-31T13:27:28;96640.81;;;14.31;81.46
18850;BME280;4989;48.772;9.154;2023-03-31T13:32:31;96624.47;;;13.40;85.54
18850;BME280;4989;48.772;9.154;2023-03-31T14:05:29;96548.09;;;11.10;99.23
18850;BME280;4989;48.772;9.154;2023-03-31T14:10:35;96555.31;;;11.70;91.87
18850;BME280;4989;48.772;9.154;2023-03-31T14:16:05;96546.19;;;16.42;68.52
18850;BME280;4989;48.772;9.154;2023-03-31T14:21:33;96558.56;;;18.84;61.74
18850;BME280;4989;48.772;9.154;2023-03-31T14:26:48;96548.63;;;20.03;58.09
18850;BME280;4989;48.772;9.154;2023-03-31T14:32:36;96567.47;;;16.87;61.14
18850;BME280;4989;48.772;9.154;2023-03-31T14:37:41;96565.72;;;17.12;64.60
18850;BME280;4989;48.772;9.154;2023-03-31T14:42:45;96568.19;;;17.44;59.00
18850;BME280;4989;48.772;9.154;2023-03-31T14:48:11;96557.66;;;17.48;61.92
18850;BME280;4989;48.772;9.154;2023-03-31T14:53:23;96557.75;;;16.80;61.19
18850;BME280;4989;48.772;9.154;2023-03-31T14:58:32;96562.16;;;16.38;60.73
18850;BME280;4989;48.772;9.154;2023-03-31T15:03:39;96542.97;;;16.61;61.44
18850;BME280;4989;48.772;9.154;2023-03-31T15:08:45;96537.75;;;17.02;59.70
18850;BME280;4989;48.772;9.154;2023-03-31T15:13:50;96529.78;;;17.10;59.84
18850;BME280;4989;48.772;9.154;2023-03-31T15:19:13;96519.06;;;15.19;65.14
18850;BME280;4989;48.772;9.154;2023-03-31T15:24:17;96502.06;;;15.52;66.04
18850;BME280;4989;48.772;9.154;2023-03-31T15:29:35;96508.38;;;15.75;63.42
18850;BME280;4989;48.772;9.154;2023-03-31T15:34:40;96513.13;;;15.75;64.52
18850;BME280;4989;48.772;9.154;2023-03-31T15:39:46;96522.38;;;15.83;63.99
18850;BME280;4989;48.772;9.154;2023-03-31T15:50:23;96528.44;;;14.49;68.67
18850;BME280;4989;48.772;9.154;2023-03-31T15:55:28;96538.56;;;14.43;66.57
18850;BME280;4989;48.772;9.154;2023-03-31T16:01:02;96533.81;;;13.91;68.87
18850;BME280;4989;48.772;9.154;2023-03-31T16:06:21;96537.44;;;13.83;68.75
18850;BME280;4989;48.772;9.154;2023-03-31T16:11:57;96546.66;;;13.85;68.92
18850;BME280;4989;48.772;9.154;2023-03-31T16:17:10;96554.78;;;14.00;68.53
18850;BME280;4989;48.772;9.154;2023-03-31T16:22:19;96588.84;;;13.64;68.81
18850;BME280;4989;48.772;9.154;2023-03-31T16:27:23;96586.56;;;13.42;69.73
18850;BME280;4989;48.772;9.154;2023-03-31T16:32:25;96607.06;;;13.37;70.35
18850;BME280;4989;48.772;9.154;2023-03-31T16:37:28;96574.19;;;13.11;76.04
18850;BME280;4989;48.772;9.154;2023-03-31T16:42:34;96565.75;;;12.79;80.47
18850;BME280;4989;48.772;9.154;2023-03-31T16:47:37;96565.38;;;12.57;78.98
18850;BME280;4989;48.772;9.154;2023-03-31T16:52:39;96565.75;;;12.50;78.42
18850;BME280;4989;48.772;9.154;2023-03-31T16:57:42;96542.88;;;12.18;77.86
18850;BME280;4989;48.772;9.154;2023-03-31T17:02:45;96539.91;;;11.91;79.00
18850;BME280;4989;48.772;9.154;2023-03-31T17:07:47;96546.28;;;11.88;79.28
18850;BME280;4989;48.772;9.154;2023-03-31T17:12:50;96558.91;;;12.01;80.96
18850;BME280;4989;48.772;9.154;2023-03-31T17:17:53;96560.03;;;11.94;81.23
18850;BME280;4989;48.772;9.154;2023-03-31T17:22:56;96563.25;;;12.07;79.75
18850;BME280;4989;48.772;9.154;2023-03-31T17:27:59;96568.66;;;11.93;80.53
18850;BME280;4989;48.772;9.154;2023-03-31T17:33:03;96576.53;;;11.90;80.23
18850;BME280;4989;48.772;9.154;2023-03-31T17:38:07;96599.31;;;12.02;78.39
18850;BME280;4989;48.772;9.154;2023-03-31T17:43:11;96585.72;;;12.17;78.15
18850;BME280;4989;48.772;9.154;2023-03-31T17:48:15;96582.84;;;11.97;78.81
18850;BME280;4989;48.772;9.154;2023-03-31T17:53:17;96598.75;;;12.13;79.46
18850;BME280;4989;48.772;9.154;2023-03-31T17:58:20;96603.84;;;12.20;80.15
18850;BME280;4989;48.772;9.154;2023-03-31T18:03:27;96604.97;;;12.28;80.23
18850;BME280;4989;48.772;9.154;2023-03-31T18:08:30;96622.69;;;12.48;85.80
18850;BME280;4989;48.772;9.154;2023-03-31T18:13:34;96642.66;;;12.83;85.21
18850;BME280;4989;48.772;9.154;2023-03-31T18:18:38;96650.47;;;13.05;85.04
18850;BME280;4989;48.772;9.154;2023-03-31T18:23:41;96628.16;;;13.07;82.87
18850;BME280;4989;48.772;9.154;2023-03-31T18:28:43;96617.28;;;12.77;83.47
18850;BME280;4989;48.772;9.154;2023-03-31T18:33:46;96618.81;;;12.01;88.45
18850;BME280;4989;48.772;9.154;2023-03-31T18:38:49;96611.03;;;11.84;91.49
18850;BME280;4989;48.772;9.154;2023-03-31T18:43:52;96616.84;;;11.77;90.22
18850;BME280;4989;48.772;9.154;2023-03-31T18:48:55;96606.81;;;11.59;90.48
18850;BME280;4989;48.772;9.154;2023-03-31T18:53:58;96593.09;;;11.54;91.73
18850;BME280;4989;48.772;9.154;2023-03-31T18:59:00;96585.41;;;11.43;90.73
18850;BME280;4989;48.772;9.154;2023-03-31T19:04:07;96607.22;;;11.34;91.43
18850;BME280;4989;48.772;9.154;2023-03-31T19:09:10;96593.09;;;11.20;94.15
18850;BME280;4989;48.772;9.154;2023-03-31T19:14:12;96598.88;;;11.37;90.71
18850;BME280;4989;48.772;9.154;2023-03-31T19:19:15;96597.34;;;11.45;90.76
18850;BME280;4989;48.772;9.154;2023-03-31T19:24:18;96610.72;;;11.58;89.65
18850;BME280;4989;48.772;9.154;2023-03-31T19:29:21;96604.38;;;11.28;89.70
18850;BME280;4989;48.772;9.154;2023-03-31T19:34:23;96603.97;;;11.54;89.35
18850;BME280;4989;48.772;9.154;2023-03-31T19:39:26;96601.75;;;11.67;86.67
18850;BME280;4989;48.772;9.154;2023-03-31T19:44:29;96612.00;;;11.48;87.76
18850;BME280;4989;48.772;9.154;2023-03-31T19:49:32;96606.25;;;11.46;87.28
18850;BME280;4989;48.772;9.154;2023-03-31T19:54:35;96615.22;;;11.37;88.77
18850;BME280;4989;48.772;9.154;2023-03-31T19:59:50;96607.09;;;11.61;86.88
18850;BME280;4989;48.772;9.154;2023-03-31T20:04:53;96614.09;;;11.53;86.64
18850;BME280;4989;48.772;9.154;2023-03-31T20:09:55;96610.06;;;11.39;87.72
18850;BME280;4989;48.772;9.154;2023-03-31T20:14:58;96601.56;;;11.22;87.93
18850;BME280;4989;48.772;9.154;2023-03-31T20:20:00;96624.34;;;11.25;88.29
18850;BME280;4989;48.772;9.154;2023-03-31T20:25:04;96625.31;;;11.46;87.11
18850;BME280;4989;48.772;9.154;2023-03-31T20:30:08;96620.41;;;11.26;91.43
18850;BME280;4989;48.772;9.154;2023-03-31T20:35:11;96628.66;;;11.08;96.56
18850;BME280;4989;48.772;9.154;2023-03-31T20:40:14;96627.56;;;11.14;96.69
18850;BME280;4989;48.772;9.154;2023-03-31T20:45:17;96631.69;;;10.91;96.84
18850;BME280;4989;48.772;9.154;2023-03-31T20:50:21;96629.16;;;10.78;98.50
18850;BME280;4989;48.772;9.154;2023-03-31T20:55:24;96637.56;;;10.99;96.86
18850;BME280;4989;48.772;9.154;2023-03-31T21:00:27;96646.72;;;11.20;94.79
18850;BME280;4989;48.772;9.154;2023-03-31T21:05:29;96641.44;;;11.16;94.35
18850;BME280;4989;48.772;9.154;2023-03-31T21:10:38;96655.59;;;10.78;95.56
18850;BME280;4989;48.772;9.154;2023-03-31T21:15:46;96640.47;;;10.86;95.33
18850;BME280;4989;48.772;9.154;2023-03-31T21:20:53;96649.41;;;11.29;92.16
18850;BME280;4989;48.772;9.154;2023-03-31T21:25:59;96652.75;;;11.24;91.17
18850;BME280;4989;48.772;9.154;2023-03-31T21:31:05;96639.75;;;11.19;91.34
18850;BME280;4989;48.772;9.154;2023-03-31T21:36:11;96664.94;;;10.77;94.47
18850;BME280;4989;48.772;9.154;2023-03-31T21:41:19;96669.47;;;10.62;99.61
18850;BME280;4989;48.772;9.154;2023-03-31T21:46:26;96669.19;;;10.69;100.00
18850;BME280;4989;48.772;9.154;2023-03-31T21:51:29;96659.50;;;10.59;100.00
18850;BME280;4989;48.772;9.154;2023-03-31T21:56:32;96684.59;;;10.44;100.00
18850;BME280;4989;48.772;9.154;2023-03-31T22:01:35;96679.44;;;10.65;100.00
18850;BME280;4989;48.772;9.154;2023-03-31T22:06:38;96686.38;;;10.75;100.00
18850;BME280;4989;48.772;9.154;2023-03-31T22:11:41;96671.91;;;10.60;100.00
18850;BME280;4989;48.772;9.154;2023-03-31T22:16:43;96685.50;;;10.50;100.00
18850;BME280;4989;48.772;9.154;2023-03-31T22:21:46;96673.72;;;10.35;100.00
18850;BME280;4989;48.772;9.154;2023-03-31T22:27:05;96687.44;;;10.41;100.00
18850;BME280;4989;48.772;9.154;2023-03-31T22:32:08;96686.94;;;10.15;100.00
18850;BME280;4989;48.772;9.154;2023-03-31T22:37:10;96684.22;;;10.15;100.00
18850;BME280;4989;48.772;9.154;2023-03-31T22:42:13;96677.88;;;10.08;100.00
18850;BME280;4989;48.772;9.154;2023-03-31T22:47:15;96685.44;;;10.14;100.00
18850;BME280;4989;48.772;9.154;2023-03-31T22:52:18;96680.09;;;9.92;100.00
18850;BME280;4989;48.772;9.154;2023-03-31T22:57:21;96688.06;;;9.77;100.00
18850;BME280;4989;48.772;9.154;2023-03-31T23:02:24;96674.19;;;9.66;100.00
18850;BME280;4989;48.772;9.154;2023-03-31T23:07:26;96671.78;;;9.86;100.00
18850;BME280;4989;48.772;9.154;2023-03-31T23:12:30;96672.25;;;9.75;100.00
18850;BME280;4989;48.772;9.154;2023-03-31T23:17:36;96676.91;;;9.75;100.00
18850;BME280;4989;48.772;9.154;2023-03-31T23:22:39;96671.78;;;9.86;100.00
18850;BME280;4989;48.772;9.154;2023-03-31T23:27:41;96665.16;;;9.78;100.00
18850;BME280;4989;48.772;9.154;2023-03-31T23:32:44;96661.56;;;9.90;100.00
18850;BME280;4989;48.772;9.154;2023-03-31T23:37:46;96674.69;;;9.92;100.00
18850;BME280;4989;48.772;9.154;2023-03-31T23:42:49;96660.38;;;10.00;98.43
18850;BME280;4989;48.772;9.154;2023-03-31T23:47:52;96673.75;;;9.76;99.20
18850;BME280;4989;48.772;9.154;2023-03-31T23:52:54;96659.94;;;10.02;98.08
18850;BME280;4989;48.772;9.154;2023-03-31T23:58:00;96658.88;;;9.99;98.26
